EHFZ

F16-a Sea

F16-a Sea, The Netherlands
METAR EHFZ 221355Z AUTO 30018KT 9999 FEW029 SCT033 12/05 Q1033 W///H///
Observed Flight Rules
Oct-22 @ 13:55 UTC (26 minutes ago) Visual Flight Rules
Wind Visibility Clouds
300° at 18 knots 10,000+ meters
  • Few at 2,900' AGL
  • Scattered at 3,300' AGL
Temperatures Readings
Current 12°C / 54°F
Dewpoint 5°C / 41°F
Humidity 63%
Altimeter 30.5" Hg
Pressure 1033 hPa
Elevation 50
METAR EHFZ 221355Z AUTO 30018KT 9999 FEW029 SCT033 12/05 Q1033 W///H///
Observed Flight Rules
Oct-22 @ 13:55 UTC
(26 minutes ago)
VFR
Wind Visibility
300° at 18 knots 10,000+ meters
Clouds
  • Few at 2,900' AGL
  • Scattered at 3,300' AGL
Temperature Dewpoint
12°C / 54°F 5°C / 41°F
Humidity Altimeter Pressure
63% 30.5" Hg 1033 hPa